Hoven, South Dakota
Current Conditions -  °F | °C
As of 6:52 AM on Sunday 23 Nov 2014 (Local Time) from KMBG Reporting Station
Broken Clouds Broken Clouds  
Wind Chill: 28°   Ceiling: 4100
Heat Index: 37°   Visibility: 10mi
Dew Point: 32°   Wind: 14mph
Humidity: 82%   Direction: 290°WNW
Pressure: 29.49"   Gusts: NA
Location:  45.24°N, 99.78°W
Report Text: KMBG 231252Z AUTO 29012KT 10SM BKN041 03/00 A2949 RMK AO2 SLP999 T00280000
Loading
Personal Weather Stations






























Interactive Weather Map New forecast layout! Learn more

10-Day Weather Forecast

Advertisements
Track Severe Weather on mobile